Time;durP1;ratioP1;P1;durP2;ratioP2;P2;SDS_P1;SDS_P2;PMS_P1;PMS_P2;Temp;Humidity;BMP_temperature;BMP_pressure;BME280_temperature;BME280_humidity;BME280_pressure;Samples;Min_cycle;Max_cycle;Signal;HPM_P1;HPM_P2
2023/09/06 00:02:13;;;;;;;9.13;8.23;;;;;;;;;;5017179;28;20022;-50
2023/09/06 00:04:39;;;;;;;8.50;7.68;;;;;;;;;;5016640;28;20038;-50
2023/09/06 00:07:06;;;;;;;9.82;8.23;;;;;;;;;;5014928;28;20037;-51
2023/09/06 00:09:32;;;;;;;8.85;7.95;;;;;;;;;;5016754;28;20044;-51
2023/09/06 00:11:58;;;;;;;9.23;8.35;;;;;;;;;;5016759;28;20109;-52
2023/09/06 00:14:29;;;;;;;10.02;8.68;;;;;;;;;;5016994;28;20022;-52
2023/09/06 00:16:55;;;;;;;9.57;8.68;;;;;;;;;;5014781;28;20038;-51
2023/09/06 00:19:23;;;;;;;9.73;8.75;;;;;;;;;;5016483;28;20037;-52
2023/09/06 00:21:49;;;;;;;9.70;8.73;;;;;;;;;;5016623;28;20025;-50
2023/09/06 00:24:15;;;;;;;9.73;8.10;;;;;;;;;;5016726;28;20034;-51
2023/09/06 00:26:41;;;;;;;10.55;8.80;;;;;;;;;;5016353;28;20046;-51
2023/09/06 00:29:07;;;;;;;14.43;9.00;;;;;;;;;;5016444;28;20377;-51
2023/09/06 00:31:34;;;;;;;16.20;8.98;;;;;;;;;;5016152;28;20029;-52
2023/09/06 00:34:00;;;;;;;9.40;8.50;;;;;;;;;;5016334;28;20482;-51
2023/09/06 00:36:32;;;;;;;10.23;9.15;;;;;;;;;;5016237;28;20036;-50
2023/09/06 00:38:58;;;;;;;11.05;9.38;;;;;;;;;;5014509;28;21286;-51
2023/09/06 00:41:25;;;;;;;10.30;9.18;;;;;;;;;;5013939;28;20117;-54
2023/09/06 00:43:51;;;;;;;9.52;8.70;;;;;;;;;;5015771;28;20123;-52
2023/09/06 00:46:18;;;;;;;12.63;9.27;;;;;;;;;;5014215;28;20042;-50
2023/09/06 00:48:47;;;;;;;9.57;8.23;;;;;;;;;;5016323;28;20061;-52
2023/09/06 00:51:13;;;;;;;10.60;9.13;;;;;;;;;;5016153;28;20037;-50
2023/09/06 00:53:39;;;;;;;8.75;7.88;;;;;;;;;;5015914;28;20113;-51
2023/09/06 00:56:08;;;;;;;9.70;8.60;;;;;;;;;;5013846;28;20100;-50
2023/09/06 00:58:36;;;;;;;9.73;8.68;;;;;;;;;;5013963;28;20103;-52
2023/09/06 01:01:05;;;;;;;9.75;8.75;;;;;;;;;;5014826;28;20061;-51
2023/09/06 01:03:31;;;;;;;9.45;8.55;;;;;;;;;;5015405;28;20076;-51
2023/09/06 01:06:16;;;;;;;9.77;8.88;;;;;;;;;;5015520;28;20045;-51
2023/09/06 01:08:50;;;;;;;11.13;9.82;;;;;;;;;;5015647;28;20122;-52
2023/09/06 01:11:21;;;;;;;10.00;9.00;;;;;;;;;;5015477;28;20092;-51
2023/09/06 01:13:51;;;;;;;10.47;9.50;;;;;;;;;;5015529;28;20030;-51
2023/09/06 01:16:23;;;;;;;11.35;9.25;;;;;;;;;;5015591;28;20259;-52
2023/09/06 01:18:50;;;;;;;13.55;9.23;;;;;;;;;;5015496;28;20389;-52
2023/09/06 01:21:17;;;;;;;10.32;9.13;;;;;;;;;;5013622;28;20552;-51
2023/09/06 01:23:44;;;;;;;10.90;9.18;;;;;;;;;;5015176;28;20042;-51
2023/09/06 01:26:10;;;;;;;9.73;8.77;;;;;;;;;;5014921;28;20145;-53
2023/09/06 01:28:36;;;;;;;10.38;9.32;;;;;;;;;;5015392;28;20025;-50
2023/09/06 01:31:02;;;;;;;10.93;8.98;;;;;;;;;;5014859;28;20064;-52
2023/09/06 01:33:29;;;;;;;9.80;8.43;;;;;;;;;;5015180;28;20427;-51
2023/09/06 01:35:56;;;;;;;10.73;8.00;;;;;;;;;;5015258;28;20339;-50
2023/09/06 01:38:22;;;;;;;11.25;8.13;;;;;;;;;;5015061;28;20038;-52
2023/09/06 01:40:48;;;;;;;8.98;8.18;;;;;;;;;;5015005;28;20037;-51
2023/09/06 01:43:14;;;;;;;9.25;8.00;;;;;;;;;;5015364;28;20169;-51
2023/09/06 01:45:45;;;;;;;8.65;7.80;;;;;;;;;;5012983;28;20073;-52
2023/09/06 01:48:11;;;;;;;10.00;8.30;;;;;;;;;;5014668;28;20036;-51
2023/09/06 01:50:38;;;;;;;9.98;9.05;;;;;;;;;;5014755;28;20619;-53
2023/09/06 01:53:04;;;;;;;9.93;8.90;;;;;;;;;;5015138;28;20022;-52
2023/09/06 01:55:30;;;;;;;10.02;8.55;;;;;;;;;;4996517;28;20045;-53
2023/09/06 01:57:56;;;;;;;9.35;8.43;;;;;;;;;;5014741;28;20077;-51
2023/09/06 02:00:27;;;;;;;11.35;8.38;;;;;;;;;;5014612;28;20034;-51
2023/09/06 02:02:53;;;;;;;11.85;9.55;;;;;;;;;;5012746;28;20049;-51
2023/09/06 02:05:19;;;;;;;9.95;8.30;;;;;;;;;;5025188;28;20547;-51
2023/09/06 02:07:45;;;;;;;9.93;8.82;;;;;;;;;;5034194;28;20120;-52
2023/09/06 02:10:12;;;;;;;10.88;8.95;;;;;;;;;;5033915;28;20029;-52
2023/09/06 02:12:38;;;;;;;9.07;8.27;;;;;;;;;;5032871;28;20025;-50
2023/09/06 02:15:05;;;;;;;11.68;9.40;;;;;;;;;;5012092;28;20039;-53
2023/09/06 02:17:32;;;;;;;10.82;8.82;;;;;;;;;;5012139;28;20072;-52
2023/09/06 02:20:07;;;;;;;10.57;9.48;;;;;;;;;;5012142;28;20613;-51
2023/09/06 02:22:34;;;;;;;9.88;8.48;;;;;;;;;;5012110;28;20397;-52
2023/09/06 02:25:01;;;;;;;12.18;9.30;;;;;;;;;;5012024;28;20046;-52
2023/09/06 02:27:27;;;;;;;9.82;8.57;;;;;;;;;;5011815;28;20497;-52
2023/09/06 02:29:53;;;;;;;11.70;9.00;;;;;;;;;;5011937;28;20046;-51
2023/09/06 02:32:20;;;;;;;11.60;10.40;;;;;;;;;;4979262;28;20541;-50
2023/09/06 02:34:47;;;;;;;11.38;9.73;;;;;;;;;;5011823;28;20026;-52
2023/09/06 02:37:12;;;;;;;12.82;10.48;;;19.20;99.90;;;;;;5011429;28;20470;-50
2023/09/06 02:39:38;;;;;;;14.55;10.07;;;19.30;99.90;;;;;;5011912;28;20033;-52
2023/09/06 02:42:04;;;;;;;11.93;9.63;;;19.30;99.90;;;;;;5011703;28;20030;-53
2023/09/06 02:44:30;;;;;;;9.95;9.00;;;19.20;99.90;;;;;;4979179;28;20406;-51
2023/09/06 02:46:56;;;;;;;12.45;9.45;;;19.20;99.90;;;;;;5030957;28;20037;-51
2023/09/06 02:49:26;;;;;;;10.30;9.25;;;19.30;99.90;;;;;;4982304;28;20038;-52
2023/09/06 02:51:51;;;;;;;10.95;8.90;;;19.30;99.90;;;;;;5023958;28;20030;-52
2023/09/06 02:54:18;;;;;;;11.07;8.95;;;19.30;99.90;;;;;;5032192;28;20458;-52
2023/09/06 02:56:45;;;;;;;10.63;8.40;;;18.20;99.90;;;;;;5033412;28;20026;-52
2023/09/06 02:59:15;;;;;;;10.30;9.25;;;;;;;;;;5033185;28;20060;-52
2023/09/06 03:01:44;;;;;;;16.23;9.43;;;;;;;;;;5033762;28;20030;-53
2023/09/06 03:04:13;;;;;;;26.88;19.63;;;17.90;99.90;;;;;;5033065;28;20076;-54
2023/09/06 03:06:43;;;;;;;69.95;55.10;;;17.60;99.90;;;;;;5033335;28;20064;-51
2023/09/06 03:09:11;;;;;;;43.85;35.25;;;17.70;99.90;;;;;;5033201;28;20112;-55
2023/09/06 03:11:38;;;;;;;24.15;21.58;;;18.10;99.90;;;;;;5031126;28;20037;-52
2023/09/06 03:14:05;;;;;;;20.77;18.52;;;18.30;99.90;;;;;;5031067;28;20036;-52
2023/09/06 03:16:38;;;;;;;17.08;13.25;;;;;;;;;;5014425;28;20048;-52
2023/09/06 03:19:10;;;;;;;11.65;9.77;;;;;;;;;;5031106;28;20108;-53
2023/09/06 03:21:45;;;;;;;13.63;9.95;;;;;;;;;;5014375;28;20493;-52
2023/09/06 03:24:12;;;;;;;12.05;10.10;;;;;;;;;;5034080;28;20030;-51
2023/09/06 03:26:44;;;;;;;9.88;8.93;;;18.70;99.90;;;;;;5034760;28;20052;-56
2023/09/06 03:29:10;;;;;;;11.10;9.20;;;18.70;99.90;;;;;;5015257;28;20088;-53
2023/09/06 03:31:42;;;;;;;10.55;9.23;;;18.70;99.90;;;;;;5015213;28;20038;-51
2023/09/06 03:34:13;;;;;;;9.70;8.82;;;18.70;99.90;;;;;;5015203;28;20100;-52
2023/09/06 03:36:42;;;;;;;10.88;8.95;;;18.60;99.90;;;;;;5015122;28;20531;-52
2023/09/06 03:39:13;;;;;;;10.95;9.38;;;18.60;99.90;;;;;;5015002;28;20042;-53
2023/09/06 03:42:01;;;;;;;11.40;9.48;;;18.60;99.90;;;;;;5016993;28;20072;-52
2023/09/06 03:44:31;;;;;;;9.98;8.55;;;18.70;99.90;;;;;;4978770;28;20064;-52
2023/09/06 03:46:57;;;;;;;10.32;9.20;;;18.70;99.90;;;;;;4995218;28;20458;-54
2023/09/06 03:49:23;;;;;;;10.68;7.80;;;18.70;99.90;;;;;;4995181;28;20034;-54
2023/09/06 03:51:51;;;;;;;12.15;9.57;;;18.70;99.90;;;;;;4978988;28;20034;-53
2023/09/06 03:54:18;;;;;;;14.90;9.77;;;;;;;;;;4995022;28;20574;-54
2023/09/06 03:56:44;;;;;;;10.90;9.80;;;17.50;99.90;;;;;;4995184;28;20494;-52
2023/09/06 03:59:15;;;;;;;10.27;9.27;;;17.10;99.90;;;;;;4997016;28;20489;-53
2023/09/06 04:02:00;;;;;;;10.02;8.93;;;16.80;99.90;;;;;;4975628;28;20046;-52
2023/09/06 04:04:28;;;;;;;13.60;9.77;;;16.60;99.90;;;;;;4975452;28;20186;-52
2023/09/06 04:07:14;;;;;;;14.65;9.73;;;17.00;99.90;;;;;;4937103;29;20040;-54
2023/09/06 04:09:42;;;;;;;14.32;9.60;;;17.30;99.90;;;;;;4936838;29;20052;-54
2023/09/06 04:12:08;;;;;;;13.13;9.20;;;17.50;99.90;;;;;;4937089;29;20491;-53
2023/09/06 04:14:35;;;;;;;11.23;9.18;;;17.70;99.90;;;;;;4905323;29;20107;-54
2023/09/06 04:17:06;;;;;;;12.07;9.05;;;18.20;99.90;;;;;;4921054;29;20111;-53
2023/09/06 04:19:33;;;;;;;11.48;9.00;;;18.20;99.90;;;;;;4936636;29;20052;-54
2023/09/06 04:22:01;;;;;;;9.65;8.10;;;17.90;99.90;;;;;;4966602;28;20039;-53
2023/09/06 04:24:27;;;;;;;15.80;9.20;;;18.10;99.90;;;;;;4975051;28;20114;-52
2023/09/06 04:26:53;;;;;;;12.77;9.63;;;18.10;99.90;;;;;;4975007;28;20089;-51
2023/09/06 04:29:19;;;;;;;11.55;8.57;;;18.00;99.90;;;;;;4975059;28;20034;-52
2023/09/06 04:31:45;;;;;;;10.38;9.35;;;18.20;99.90;;;;;;4975324;28;20126;-52
2023/09/06 04:34:12;;;;;;;11.30;9.02;;;18.60;99.90;;;;;;5013802;28;20498;-52
2023/09/06 04:36:37;;;;;;;10.80;9.27;;;18.50;99.90;;;;;;5014074;28;20442;-53
2023/09/06 04:39:03;;;;;;;11.98;10.05;;;18.50;99.90;;;;;;5013936;28;20129;-53
2023/09/06 04:41:31;;;;;;;15.25;9.35;;;18.50;99.90;;;;;;4981319;28;20085;-51
2023/09/06 04:43:57;;;;;;;12.98;9.98;;;18.50;99.90;;;;;;5017962;28;20401;-53
2023/09/06 04:46:22;;;;;;;14.02;10.18;;;18.60;99.90;;;;;;5033585;28;20051;-52
2023/09/06 04:48:48;;;;;;;13.52;9.57;;;18.70;99.90;;;;;;5033569;28;20034;-52
2023/09/06 04:51:14;;;;;;;12.38;8.52;;;18.80;99.90;;;;;;5033692;28;20109;-51
2023/09/06 04:53:40;;;;;;;12.40;9.35;;;18.80;99.90;;;;;;5034986;28;20129;-52
2023/09/06 04:56:06;;;;;;;9.18;8.25;;;18.90;99.90;;;;;;5035670;28;20033;-54
2023/09/06 04:58:33;;;;;;;11.35;8.73;;;19.00;99.90;;;;;;5035494;28;20041;-53
2023/09/06 05:01:05;;;;;;;20.35;9.45;;;19.10;99.90;;;;;;5035414;28;20040;-51
2023/09/06 05:03:32;;;;;;;14.38;8.70;;;19.10;99.90;;;;;;5035633;28;20071;-52
2023/09/06 05:05:58;;;;;;;11.13;8.38;;;19.20;99.90;;;;;;5035222;28;20033;-53
2023/09/06 05:08:24;;;;;;;10.63;7.82;;;19.20;99.90;;;;;;5035588;28;20105;-53
2023/09/06 05:10:51;;;;;;;10.02;9.02;;;19.50;99.90;;;;;;5035611;28;20040;-53
2023/09/06 05:13:18;;;;;;;13.88;9.15;;;19.40;99.90;;;;;;5035387;28;20040;-53
2023/09/06 05:15:44;;;;;;;13.00;8.98;;;19.30;99.90;;;;;;5016825;28;20507;-53
2023/09/06 05:18:10;;;;;;;14.13;9.10;;;19.20;99.90;;;;;;5013395;28;20046;-53
2023/09/06 05:20:38;;;;;;;11.82;8.90;;;19.30;99.90;;;;;;5013200;28;20397;-52
2023/09/06 05:23:14;;;;;;;10.43;8.65;;;19.10;99.90;;;;;;5013337;28;20046;-53
2023/09/06 05:25:41;;;;;;;13.68;9.02;;;19.20;99.90;;;;;;5012891;28;20112;-52
2023/09/06 05:28:09;;;;;;;12.55;9.13;;;;;;;;;;4996745;28;20077;-51
2023/09/06 05:30:38;;;;;;;11.82;8.70;;;;;;;;;;5013214;28;20038;-52
2023/09/06 05:33:04;;;;;;;9.68;8.68;;;;;;;;;;5012864;28;20050;-53
2023/09/06 05:35:31;;;;;;;11.02;8.65;;;;;;;;;;4980783;28;20053;-52
2023/09/06 05:37:56;;;;;;;16.10;9.85;;;19.80;99.90;;;;;;5012858;28;20466;-53
2023/09/06 05:40:23;;;;;;;11.00;8.55;;;19.90;99.90;;;;;;5012791;28;20073;-52
2023/09/06 05:42:50;;;;;;;12.15;8.63;;;19.60;99.90;;;;;;5012656;28;20440;-52
2023/09/06 05:45:17;;;;;;;11.45;9.23;;;19.50;99.90;;;;;;5012210;28;20100;-51
2023/09/06 05:47:43;;;;;;;14.68;8.98;;;19.70;99.90;;;;;;5012850;28;20042;-53
2023/09/06 05:50:08;;;;;;;10.20;8.00;;;19.90;99.90;;;;;;5032886;28;20555;-52
2023/09/06 05:52:34;;;;;;;17.60;9.73;;;19.80;99.90;;;;;;5034874;28;20560;-53
2023/09/06 05:55:01;;;;;;;11.13;8.57;;;;;;;;;;5034482;28;20052;-53
2023/09/06 05:57:28;;;;;;;11.27;9.30;;;;;;;;;;5034674;28;20033;-51
2023/09/06 05:59:54;;;;;;;11.10;9.05;;;20.00;99.90;;;;;;5034156;28;20037;-53
2023/09/06 06:02:20;;;;;;;10.77;8.50;;;19.90;99.90;;;;;;5016036;28;20054;-51
2023/09/06 06:04:45;;;;;;;10.00;9.00;;;20.00;99.90;;;;;;5034716;28;20041;-51
2023/09/06 06:07:13;;;;;;;14.13;8.95;;;20.30;99.90;;;;;;5015741;28;20045;-51
2023/09/06 06:09:39;;;;;;;11.43;8.32;;;20.00;99.90;;;;;;5034136;28;20037;-51
2023/09/06 06:12:05;;;;;;;8.60;7.68;;;20.00;99.90;;;;;;5033100;28;20021;-52
2023/09/06 06:14:30;;;;;;;11.50;8.13;;;19.10;99.90;;;;;;5033575;28;20021;-51
2023/09/06 06:16:57;;;;;;;8.45;7.57;;;20.00;99.90;;;;;;5033769;28;20036;-52
2023/09/06 06:19:23;;;;;;;11.40;8.00;;;20.30;99.90;;;;;;5033528;28;20075;-51
2023/09/06 06:21:50;;;;;;;10.88;8.27;;;20.20;99.90;;;;;;5033320;28;20022;-54
2023/09/06 06:24:16;;;;;;;11.65;8.00;;;;;;;;;;5033495;28;20040;-52
2023/09/06 06:26:43;;;;;;;11.15;9.40;;;;;;;;;;5033663;28;20424;-52
2023/09/06 06:29:09;;;;;;;14.20;8.32;;;20.60;99.90;;;;;;5034292;28;20152;-53
2023/09/06 06:31:34;;;;;;;9.45;7.85;;;21.00;99.90;;;;;;5033838;28;20021;-53
2023/09/06 06:34:00;;;;;;;9.10;7.13;;;20.90;99.90;;;;;;4999075;28;20060;-51
2023/09/06 06:36:26;;;;;;;14.02;8.48;;;21.10;99.90;;;;;;5033702;28;20033;-51
2023/09/06 06:38:52;;;;;;;9.98;7.47;;;21.30;99.90;;;;;;5033417;28;20116;-51
2023/09/06 06:41:20;;;;;;;9.30;8.02;;;21.30;99.90;;;;;;5015212;28;20037;-51
2023/09/06 06:43:49;;;;;;;9.95;8.40;;;;;;;;;;5033607;28;20065;-51
2023/09/06 06:46:25;;;;;;;9.80;7.85;;;21.60;99.90;;;;;;5033405;28;20037;-53
2023/09/06 06:48:51;;;;;;;10.13;8.52;;;21.80;99.90;;;;;;5033825;28;20036;-52
2023/09/06 06:51:17;;;;;;;8.88;7.60;;;;;;;;;;5033690;28;20033;-52
2023/09/06 06:53:42;;;;;;;11.52;8.52;;;21.90;99.90;;;;;;5031877;28;20037;-52
2023/09/06 06:56:09;;;;;;;11.90;8.15;;;;;;;;;;5033272;28;20091;-52
2023/09/06 06:58:34;;;;;;;12.98;8.45;;;22.20;99.90;;;;;;5032561;28;20034;-53
2023/09/06 07:01:00;;;;;;;9.52;8.27;;;;;;;;;;5033810;28;20029;-52
2023/09/06 07:03:28;;;;;;;12.48;8.25;;;;;;;;;;5032048;28;20469;-52
2023/09/06 07:05:55;;;;;;;9.73;8.38;;;22.80;99.90;;;;;;5033324;28;20481;-53
2023/09/06 07:08:26;;;;;;;11.73;9.10;;;;;;;;;;5033815;28;20461;-53
2023/09/06 07:10:52;;;;;;;13.50;8.77;;;23.00;99.90;;;;;;5033710;28;20374;-52
2023/09/06 07:13:17;;;;;;;8.48;7.57;;;23.10;99.90;;;;;;5033154;28;20042;-52
2023/09/06 07:15:43;;;;;;;11.15;7.85;;;23.50;99.90;;;;;;5033353;28;20033;-52
2023/09/06 07:18:09;;;;;;;11.80;7.85;;;;;;;;;;5033153;28;20025;-51
2023/09/06 07:20:35;;;;;;;14.65;8.45;;;23.60;99.90;;;;;;5033129;28;20060;-52
2023/09/06 07:23:01;;;;;;;10.20;8.43;;;23.60;99.90;;;;;;5032978;28;20033;-52
2023/09/06 07:25:27;;;;;;;13.63;8.48;;;23.90;99.90;;;;;;5015095;28;20053;-51
2023/09/06 07:27:54;;;;;;;9.50;7.40;;;24.00;99.90;;;;;;5033012;28;20062;-52
2023/09/06 07:30:19;;;;;;;10.18;7.18;;;24.00;99.90;;;;;;5033275;28;20031;-52
2023/09/06 07:32:45;;;;;;;12.55;7.82;;;24.00;99.90;;;;;;5032792;28;20030;-53
2023/09/06 07:35:12;;;;;;;8.57;6.65;;;24.20;99.90;;;;;;5033096;28;20113;-52
2023/09/06 07:37:38;;;;;;;8.98;6.80;;;;;;;;;;5033441;28;20378;-52
2023/09/06 07:40:06;;;;;;;9.57;6.88;;;24.60;99.90;;;;;;5032933;28;20025;-52
2023/09/06 07:42:36;;;;;;;8.70;7.43;;;25.00;99.90;;;;;;5033054;28;20084;-51
2023/09/06 07:45:02;;;;;;;9.18;7.53;;;;;;;;;;5032973;28;20543;-52
2023/09/06 07:47:28;;;;;;;8.90;6.60;;;;;;;;;;5032959;28;20030;-53
2023/09/06 07:49:54;;;;;;;9.70;6.93;;;25.90;99.90;;;;;;5032223;28;20036;-52
2023/09/06 07:52:20;;;;;;;8.38;6.25;;;25.90;99.90;;;;;;5032604;28;20025;-52
2023/09/06 07:54:45;;;;;;;9.15;7.47;;;25.70;99.90;;;;;;5032698;28;20393;-52
2023/09/06 07:57:12;;;;;;;10.10;7.10;;;;;;;;;;5032389;28;20025;-53
2023/09/06 07:59:38;;;;;;;8.73;6.85;;;;;;;;;;5032291;28;20021;-52
2023/09/06 08:02:04;;;;;;;10.02;7.10;;;;;;;;;;5013728;28;20397;-53
2023/09/06 08:04:30;;;;;;;6.97;6.22;;;26.60;99.90;;;;;;5031961;28;20532;-53
2023/09/06 08:06:56;;;;;;;9.88;6.22;;;26.70;99.90;;;;;;5031080;28;20041;-53
2023/09/06 08:09:22;;;;;;;7.97;5.93;;;26.40;99.90;;;;;;5034306;28;20025;-52
2023/09/06 08:11:48;;;;;;;8.48;5.93;;;;;;;;;;5018198;28;20041;-52
2023/09/06 08:14:15;;;;;;;10.70;6.47;;;27.10;99.90;;;;;;5036190;28;20033;-52
2023/09/06 08:16:41;;;;;;;6.38;5.50;;;;;;;;;;4985858;28;20045;-52
2023/09/06 08:19:07;;;;;;;7.72;5.55;;;27.70;99.90;;;;;;5017817;28;20053;-51
2023/09/06 08:21:34;;;;;;;7.65;6.45;;;;;;;;;;5017981;28;20041;-53
2023/09/06 08:24:02;;;;;;;6.03;5.43;;;;;;;;;;5036592;28;20041;-53
2023/09/06 08:26:28;;;;;;;7.07;5.28;;;28.00;99.90;;;;;;5036074;28;20060;-52
2023/09/06 08:28:54;;;;;;;7.32;5.20;;;27.70;99.90;;;;;;5036091;28;20116;-52
2023/09/06 08:31:20;;;;;;;5.72;4.82;;;;;;;;;;5035618;28;20473;-52
2023/09/06 08:33:47;;;;;;;8.80;6.05;;;;;;;;;;5035868;28;20030;-52
2023/09/06 08:36:13;;;;;;;6.45;4.78;;;;;;;;;;5035963;28;20099;-51
2023/09/06 08:38:42;;;;;;;7.95;4.82;;;29.00;99.90;;;;;;5017680;28;20413;-52
2023/09/06 08:41:09;;;;;;;5.47;4.97;;;29.10;99.90;;;;;;5026548;28;20033;-51
2023/09/06 08:43:36;;;;;;;5.95;5.25;;;29.10;99.90;;;;;;5024567;28;20480;-51
2023/09/06 08:46:14;;;;;;;11.45;5.50;;;28.30;99.90;;;;;;5027002;28;20060;-51
2023/09/06 08:48:41;;;;;;;7.88;5.38;;;28.50;99.90;;;;;;5035954;28;20037;-51
2023/09/06 08:51:11;;;;;;;13.40;5.88;;;29.10;99.90;;;;;;5035640;28;20033;-53
2023/09/06 08:53:43;;;;;;;7.05;5.20;;;28.60;99.90;;;;;;5035857;28;20037;-52
2023/09/06 08:56:09;;;;;;;10.52;5.00;;;28.90;99.90;;;;;;5035813;28;20041;-52
2023/09/06 08:58:35;;;;;;;6.43;4.35;;;29.30;99.90;;;;;;5035497;28;20034;-52
2023/09/06 09:01:05;;;;;;;5.55;4.85;;;;;;;;;;5035967;28;20052;-53
2023/09/06 09:03:31;;;;;;;7.63;4.97;;;29.60;99.90;;;;;;5035398;28;20029;-53
2023/09/06 09:06:00;;;;;;;4.57;4.18;;;;;;;;;;5035183;28;20052;-53
2023/09/06 09:08:30;;;;;;;5.50;4.00;;;28.80;99.40;;;;;;5035151;28;20025;-53
2023/09/06 09:11:14;;;;;;;6.82;4.28;;;29.30;99.90;;;;;;5035104;28;20034;-52
2023/09/06 09:13:41;;;;;;;10.07;4.03;;;29.10;99.20;;;;;;5035639;28;20037;-53
2023/09/06 09:16:12;;;;;;;5.40;4.82;;;29.00;99.10;;;;;;5016834;28;20053;-53
2023/09/06 09:18:40;;;;;;;5.63;4.00;;;29.30;99.80;;;;;;5035082;28;20033;-53
2023/09/06 09:21:13;;;;;;;5.57;4.97;;;29.30;99.50;;;;;;4999325;28;20503;-53
2023/09/06 09:23:53;;;;;;;8.43;3.97;;;30.00;99.90;;;;;;5035133;28;20120;-51
2023/09/06 09:26:21;;;;;;;6.68;4.00;;;30.40;99.30;;;;;;5034883;28;20081;-52
2023/09/06 09:28:47;;;;;;;5.03;4.07;;;29.70;98.80;;;;;;5034997;28;20052;-52
2023/09/06 09:31:15;;;;;;;6.43;4.18;;;;;;;;;;5034843;28;20064;-52
2023/09/06 09:33:45;;;;;;;6.35;4.40;;;;;;;;;;5034701;28;20104;-51
2023/09/06 09:36:14;;;;;;;4.97;3.90;;;;;;;;;;5034878;28;20033;-51
2023/09/06 09:38:50;;;;;;;5.65;3.90;;;31.50;98.20;;;;;;5016286;28;20116;-51
2023/09/06 09:41:17;;;;;;;6.43;3.80;;;31.40;98.90;;;;;;5034569;28;20034;-51
2023/09/06 09:43:42;;;;;;;7.15;4.35;;;31.50;98.30;;;;;;5016370;28;20099;-52
2023/09/06 09:46:09;;;;;;;8.70;6.43;;;31.60;98.30;;;;;;5034774;28;20420;-51
2023/09/06 09:48:36;;;;;;;7.30;4.32;;;;;;;;;;5034534;28;20041;-51
2023/09/06 09:51:06;;;;;;;4.43;3.72;;;;;;;;;;5034772;28;20084;-51
2023/09/06 09:53:33;;;;;;;5.95;4.78;;;;;;;;;;5035154;28;20036;-51
2023/09/06 09:56:01;;;;;;;6.53;4.05;;;;;;;;;;5034417;28;20160;-51
2023/09/06 09:58:28;;;;;;;5.38;4.47;;;;;;;;;;5033936;28;20026;-51
2023/09/06 10:00:54;;;;;;;7.88;3.53;;;;;;;;;;5034454;28;20370;-51
2023/09/06 10:03:21;;;;;;;8.55;4.18;;;33.00;99.10;;;;;;5034691;28;20148;-52
2023/09/06 10:05:48;;;;;;;5.53;4.40;;;32.90;95.60;;;;;;5034253;28;20119;-51
2023/09/06 10:08:15;;;;;;;4.75;4.18;;;33.00;95.80;;;;;;5034286;28;20030;-51
2023/09/06 10:10:41;;;;;;;5.93;4.40;;;;;;;;;;5034189;28;20037;-51
2023/09/06 10:13:08;;;;;;;4.65;4.05;;;;;;;;;;5033948;28;20059;-52
2023/09/06 10:15:37;;;;;;;7.40;4.25;;;33.30;99.90;;;;;;5033896;28;20025;-51
2023/09/06 10:18:05;;;;;;;5.75;4.28;;;33.40;99.90;;;;;;5033954;28;20534;-51
2023/09/06 10:20:34;;;;;;;6.55;4.10;;;32.90;94.40;;;;;;5011905;28;20504;-52
2023/09/06 10:23:01;;;;;;;3.85;3.45;;;33.00;94.70;;;;;;5006534;28;20038;-51
2023/09/06 10:25:26;;;;;;;5.13;3.65;;;33.40;94.60;;;;;;4959764;28;20046;-52
2023/09/06 10:27:57;;;;;;;5.22;3.42;;;33.20;93.90;;;;;;4992381;28;20065;-52
2023/09/06 10:30:47;;;;;;;5.47;3.97;;;32.70;94.50;;;;;;4992370;28;20442;-51
2023/09/06 10:33:35;;;;;;;5.85;4.20;;;32.30;94.70;;;;;;4992183;28;20498;-51
2023/09/06 10:36:09;;;;;;;4.30;3.60;;;32.80;94.80;;;;;;4992003;28;20101;-52
2023/09/06 10:38:52;;;;;;;5.75;3.85;;;33.30;95.00;;;;;;4959726;28;20030;-52
2023/09/06 10:41:19;;;;;;;4.25;3.38;;;;;;;;;;4992230;28;20042;-51
2023/09/06 10:44:07;;;;;;;6.28;3.42;;;;;;;;;;4991939;28;20073;-52
2023/09/06 10:46:34;;;;;;;8.02;3.35;;;34.40;99.90;;;;;;4991856;28;20046;-53
2023/09/06 10:49:19;;;;;;;5.90;3.75;;;;;;;;;;4934096;29;20543;-53
2023/09/06 10:52:11;;;;;;;5.53;3.90;;;;;;;;;;4957824;28;20414;-50
2023/09/06 10:54:42;;;;;;;7.47;3.80;;;33.40;96.10;;;;;;4972481;28;20484;-52
2023/09/06 10:57:10;;;;;;;6.00;3.28;;;;;;;;;;4972845;28;20041;-50
2023/09/06 10:59:36;;;;;;;5.63;3.50;;;;;;;;;;4972367;28;20075;-50
2023/09/06 11:02:27;;;;;;;5.13;3.78;;;34.50;99.90;;;;;;4956423;28;20042;-51
2023/09/06 11:05:11;;;;;;;10.23;3.57;;;34.60;93.70;;;;;;4972287;28;20051;-51
2023/09/06 11:07:43;;;;;;;3.90;3.50;;;33.90;93.20;;;;;;4972501;28;20035;-51
2023/09/06 11:10:10;;;;;;;5.15;3.72;;;33.60;93.00;;;;;;4977999;28;20039;-51
2023/09/06 11:12:37;;;;;;;6.93;3.63;;;34.30;93.50;;;;;;4983608;28;20030;-50
2023/09/06 11:15:05;;;;;;;6.00;3.38;;;34.50;93.40;;;;;;4911938;28;20469;-51
2023/09/06 11:17:32;;;;;;;6.57;4.13;;;34.50;93.10;;;;;;4928528;28;20038;-51
2023/09/06 11:20:10;;;;;;;6.03;4.22;;;34.60;92.80;;;;;;5010309;28;20095;-51
2023/09/06 11:22:35;;;;;;;6.32;3.65;;;34.30;92.50;;;;;;5031846;28;20083;-51
2023/09/06 11:25:01;;;;;;;5.53;3.90;;;33.80;92.50;;;;;;5028506;28;20045;-51
2023/09/06 11:27:34;;;;;;;5.63;3.60;;;;;;;;;;4997886;28;20102;-51
2023/09/06 11:30:10;;;;;;;4.40;4.00;;;;;;;;;;5032220;28;20065;-51
2023/09/06 11:32:38;;;;;;;6.53;4.00;;;;;;;;;;5015744;28;20041;-52
2023/09/06 11:35:08;;;;;;;5.35;3.88;;;34.50;99.90;;;;;;5033338;28;20127;-50
2023/09/06 11:37:37;;;;;;;7.00;4.00;;;;;;;;;;5033248;28;20443;-51
2023/09/06 11:40:12;;;;;;;6.85;3.85;;;33.70;92.30;;;;;;5033345;28;20077;-51
2023/09/06 11:42:39;;;;;;;6.35;3.63;;;;;;;;;;4985620;28;20048;-53
2023/09/06 11:45:06;;;;;;;5.65;4.05;;;;;;;;;;5036189;28;20069;-51
2023/09/06 11:47:32;;;;;;;5.03;3.92;;;32.80;91.80;;;;;;5019198;28;20116;-52
2023/09/06 11:50:05;;;;;;;7.00;3.90;;;32.90;92.00;;;;;;5036798;28;20061;-51
2023/09/06 11:52:31;;;;;;;7.63;3.90;;;32.60;92.20;;;;;;5037080;28;20025;-52
2023/09/06 11:54:58;;;;;;;6.03;3.63;;;;;;;;;;5018210;28;20168;-51
2023/09/06 11:57:27;;;;;;;8.50;4.10;;;32.20;91.80;;;;;;5018721;28;20041;-52
2023/09/06 11:59:58;;;;;;;5.68;3.80;;;32.50;92.00;;;;;;5036613;28;20041;-52
2023/09/06 12:02:34;;;;;;;6.40;4.00;;;32.30;91.80;;;;;;5036621;28;20025;-51
2023/09/06 12:05:03;;;;;;;5.63;4.32;;;;;;;;;;5036454;28;20513;-52
2023/09/06 12:07:33;;;;;;;12.13;10.93;;;32.00;91.90;;;;;;5036814;28;20389;-51
2023/09/06 12:10:04;;;;;;;5.78;4.00;;;32.50;99.90;;;;;;5036350;28;20029;-51
2023/09/06 12:12:40;;;;;;;4.80;3.70;;;32.40;99.90;;;;;;5036530;28;20169;-52
2023/09/06 12:15:14;;;;;;;5.80;3.97;;;32.30;99.90;;;;;;5034516;28;20037;-52
2023/09/06 12:17:45;;;;;;;6.15;3.83;;;32.30;99.90;;;;;;5036916;28;20022;-52
2023/09/06 12:20:19;;;;;;;3.50;3.17;;;32.20;99.90;;;;;;5036508;28;20044;-51
2023/09/06 12:22:45;;;;;;;8.75;4.05;;;32.20;99.90;;;;;;5036313;28;20029;-52
2023/09/06 12:25:14;;;;;;;6.28;4.03;;;32.50;99.90;;;;;;5017910;28;20175;-52
2023/09/06 12:27:42;;;;;;;7.38;4.07;;;33.10;92.70;;;;;;5036487;28;20053;-52
2023/09/06 12:30:09;;;;;;;4.95;3.75;;;32.80;92.30;;;;;;5036539;28;20026;-52
2023/09/06 12:32:40;;;;;;;7.63;4.03;;;32.60;92.10;;;;;;5002267;28;20127;-52
2023/09/06 12:35:07;;;;;;;4.07;3.67;;;32.70;99.90;;;;;;5016230;28;20049;-52
2023/09/06 12:37:36;;;;;;;4.72;4.22;;;32.30;92.50;;;;;;5016462;28;20026;-52
2023/09/06 12:40:15;;;;;;;8.05;4.40;;;;;;;;;;4981798;28;20123;-52
2023/09/06 12:42:43;;;;;;;6.13;4.00;;;;;;;;;;4999585;28;20045;-52
2023/09/06 12:45:16;;;;;;;8.02;4.47;;;32.60;99.90;;;;;;5014192;28;20124;-51
2023/09/06 12:47:44;;;;;;;9.30;4.10;;;;;;;;;;5016269;28;20030;-52
2023/09/06 12:50:10;;;;;;;5.38;3.90;;;;;;;;;;5014206;28;20034;-51
2023/09/06 12:52:36;;;;;;;6.47;3.60;;;34.20;92.60;;;;;;4997955;28;20045;-52
2023/09/06 12:55:05;;;;;;;5.75;3.70;;;34.30;92.60;;;;;;5014919;28;20026;-52
2023/09/06 12:57:31;;;;;;;4.78;3.95;;;34.20;92.30;;;;;;5015660;28;20054;-51
2023/09/06 12:59:58;;;;;;;6.78;3.63;;;33.90;92.10;;;;;;5015708;28;20092;-51
2023/09/06 13:02:25;;;;;;;6.30;3.80;;;33.70;92.20;;;;;;5015852;28;20474;-52
2023/09/06 13:04:51;;;;;;;5.05;4.07;;;33.80;92.10;;;;;;4981301;28;20061;-51
2023/09/06 13:07:18;;;;;;;3.90;3.47;;;33.90;92.30;;;;;;5015828;28;20026;-52
2023/09/06 13:09:44;;;;;;;7.00;3.63;;;34.30;92.60;;;;;;5016074;28;20390;-51
2023/09/06 13:12:10;;;;;;;7.18;3.45;;;34.40;92.40;;;;;;5015790;28;20030;-52
2023/09/06 13:14:37;;;;;;;5.97;3.60;;;;;;;;;;5013801;28;20042;-52
2023/09/06 13:17:04;;;;;;;6.95;3.80;;;34.50;91.90;;;;;;5015720;28;20025;-52
2023/09/06 13:19:30;;;;;;;3.75;3.30;;;34.60;92.00;;;;;;5015812;28;20447;-52
2023/09/06 13:21:56;;;;;;;4.47;3.55;;;33.80;91.30;;;;;;5015485;28;20084;-52
2023/09/06 13:24:21;;;;;;;4.85;3.65;;;33.50;91.80;;;;;;4993604;28;20046;-52
2023/09/06 13:26:49;;;;;;;3.50;3.20;;;33.00;91.80;;;;;;4977394;28;20092;-51
2023/09/06 13:29:16;;;;;;;7.07;3.45;;;33.30;91.90;;;;;;4993503;28;20039;-52
2023/09/06 13:31:42;;;;;;;4.45;3.28;;;33.50;91.80;;;;;;4977454;28;20049;-52